Airfield :
LOGIN :

Register | Disclaimer

   EN    FR    IT 

 










Legend :    VFR   Marginal VFR   IFR   Intensive IFR   Very Intensive IFR
Visi :
Ceiling :
>= 8 km
>= 3000ft
5 to 8 km
1000 to 3000 ft
1500m to 5 km
500 to 1000 ft
800 to 1500m
200 to 500 ft
< 800m
< 200 ft
Symbols :   Thunderstorms  Fog  Heavy snow  Heavy precipitations  Wind > 20 kt
SIGMETs :     Misc.  Thunderstorms  Icing  Turbulence  Mountain Waves  Volcanic Ashes






- Airport Elevation : 154 ft
- IATA code : SZZ


EPSC - Szczecin Goleniow

CURRENT METAR :
  • 061830Z 17003KT 130V230 CAVOK 16/05 Q1003

EXPIRED METARs :
  • 061800Z 21004KT 180V250 CAVOK 17/05 Q1003
  • 061730Z 21005KT 180V250 CAVOK 17/03 Q1003
  • 061700Z 23007KT 180V260 CAVOK 17/03 Q1002
  • 061630Z 22008KT 180V270 CAVOK 18/03 Q1002
  • 061600Z 24009KT 190V280 CAVOK 19/02 Q1002
  • 061530Z 19009KT 150V240 CAVOK 19/02 Q1002

TAF TAF EPSC
Valid from the 06 at 18:00 until the 07 at 18:00 UTC


061730Z 0618/0718 22012KT CAVOK
PROB40
TEMPO 0618/0621 SCT035CB
BECMG 0618/0620 VRB03KT
BECMG 0706/0709 18012KT
TEMPO 0710/0718 -SHRA BKN035CB



MET'MAP, your aeronautical weather chart ! - Copyright ORBIFLY December 2007 - Disclaimer

ORBIFLY MET'MAP TEAM :

Programming & Development : Alexandra Zaïnal
Concept & original design : Baudouin d'Aumeries
Assistance for programming : Marc-Olivier Méhu
Technical & hardware support : Manuel Goepfert

Contact : metmap@orbifly.com




SOURCES & CREDITS :

   NOAA